Time;durP1;ratioP1;P1;durP2;ratioP2;P2;SDS_P1;SDS_P2;PMS_P1;PMS_P2;Temp;Humidity;BMP_temperature;BMP_pressure;BME280_temperature;BME280_humidity;BME280_pressure;Samples;Min_cycle;Max_cycle;Signal;HPM_P1;HPM_P2
2022/01/05 00:02:04;;;;;;;;;;;2.20;99.90;;;;;;5029436;28;21318;-70
2022/01/05 00:04:34;;;;;;;;;;;2.20;99.90;;;;;;5028208;28;20068;-69
2022/01/05 00:07:03;;;;;;;;;;;2.20;99.90;;;;;;5028035;28;20056;-70
2022/01/05 00:09:30;;;;;;;;;;;2.10;99.90;;;;;;5027001;28;20081;-70
2022/01/05 00:11:57;;;;;;;;;;;2.00;99.90;;;;;;5026901;28;20169;-69
2022/01/05 00:14:24;;;;;;;;;;;2.10;99.90;;;;;;5027497;28;20072;-70
2022/01/05 00:16:51;;;;;;;;;;;2.10;99.90;;;;;;5026962;28;21148;-70
2022/01/05 00:19:18;;;;;;;;;;;2.10;99.90;;;;;;5026753;28;20060;-70
2022/01/05 00:21:47;;;;;;;;;;;2.10;99.90;;;;;;5026338;28;21179;-69
2022/01/05 00:24:16;;;;;;;;;;;2.10;99.90;;;;;;5026220;28;20206;-70
2022/01/05 00:26:43;;;;;;;;;;;2.00;99.90;;;;;;5027845;28;21026;-70
2022/01/05 00:29:10;;;;;;;;;;;2.00;99.90;;;;;;5026947;28;20065;-70
2022/01/05 00:31:37;;;;;;;;;;;2.00;99.90;;;;;;5027162;28;21097;-70
2022/01/05 00:34:05;;;;;;;;;;;2.00;99.90;;;;;;5026405;28;20082;-70
2022/01/05 00:36:32;;;;;;;;;;;2.00;99.90;;;;;;5026913;28;20051;-69
2022/01/05 00:38:59;;;;;;;;;;;2.00;99.90;;;;;;5026817;28;20051;-70
2022/01/05 00:41:28;;;;;;;;;;;2.00;99.90;;;;;;5026996;28;20064;-70
2022/01/05 00:43:55;;;;;;;;;;;2.00;99.90;;;;;;5027029;28;20060;-70
2022/01/05 00:46:22;;;;;;;;;;;2.00;99.90;;;;;;5026299;28;20059;-70
2022/01/05 00:48:49;;;;;;;;;;;2.00;99.90;;;;;;5026296;28;20059;-70
2022/01/05 00:51:17;;;;;;;;;;;2.00;99.90;;;;;;5026692;28;20061;-70
2022/01/05 00:53:44;;;;;;;;;;;2.10;99.90;;;;;;5026557;28;20059;-70
2022/01/05 00:56:11;;;;;;;;;;;2.20;99.90;;;;;;5026806;28;20050;-70
2022/01/05 00:58:40;;;;;;;;;;;2.20;99.90;;;;;;5026025;28;21252;-70
2022/01/05 01:01:07;;;;;;;;;;;2.20;99.90;;;;;;5026761;28;20105;-70
2022/01/05 01:03:34;;;;;;;;;;;2.20;99.90;;;;;;5026146;28;21108;-70
2022/01/05 01:06:01;;;;;;;;;;;2.20;99.90;;;;;;5026093;28;20058;-70
2022/01/05 01:08:29;;;;;;;;;;;2.30;99.90;;;;;;5026585;28;20063;-70
2022/01/05 01:10:56;;;;;;;;;;;2.30;99.90;;;;;;5026641;28;20067;-70
2022/01/05 01:13:23;;;;;;;;;;;2.30;99.90;;;;;;5026257;28;20051;-70
2022/01/05 01:15:52;;;;;;;;;;;2.30;99.90;;;;;;5025605;28;20051;-70
2022/01/05 01:18:20;;;;;;;;;;;2.30;99.90;;;;;;5025987;28;20067;-70
2022/01/05 01:20:47;;;;;;;;;;;2.30;99.90;;;;;;5026475;28;20066;-69
2022/01/05 01:23:18;;;;;;;;;;;2.30;99.90;;;;;;5025948;28;20067;-70
2022/01/05 01:25:45;;;;;;;;;;;2.30;99.90;;;;;;5026608;28;21152;-69
2022/01/05 01:28:12;;;;;;;;;;;2.40;99.90;;;;;;5025807;28;21130;-69
2022/01/05 01:30:39;;;;;;;;;;;2.40;99.90;;;;;;5026202;28;20051;-70
2022/01/05 01:33:08;;;;;;;;;;;2.30;99.90;;;;;;5024973;28;21128;-70
2022/01/05 01:35:35;;;;;;;;;;;2.40;99.90;;;;;;5025500;28;20051;-70
2022/01/05 01:38:02;;;;;;;;;;;2.40;99.90;;;;;;5025931;28;20059;-70
2022/01/05 01:40:29;;;;;;;;;;;2.40;99.90;;;;;;5026232;28;20067;-70
2022/01/05 01:42:56;;;;;;;;;;;2.40;99.90;;;;;;5025647;28;20073;-70
2022/01/05 01:45:23;;;;;;;;;;;2.30;99.90;;;;;;5022369;28;21111;-69
2022/01/05 01:47:51;;;;;;;;;;;2.30;99.90;;;;;;5025768;28;20059;-70
2022/01/05 01:50:19;;;;;;;;;;;2.30;99.90;;;;;;5025993;28;20059;-70
2022/01/05 01:52:46;;;;;;;;;;;2.30;99.90;;;;;;5025478;28;20060;-70
2022/01/05 01:55:13;;;;;;;;;;;2.20;99.90;;;;;;5026319;28;21132;-70
2022/01/05 01:57:42;;;;;;;;;;;2.20;99.90;;;;;;5025825;28;20066;-69
2022/01/05 02:00:10;;;;;;;;;;;2.20;99.90;;;;;;5025483;28;20068;-70
2022/01/05 02:02:40;;;;;;;;;;;2.20;99.90;;;;;;5046074;28;20056;-70
2022/01/05 02:05:07;;;;;;;;;;;2.10;99.90;;;;;;5024523;28;21150;-70
2022/01/05 02:07:36;;;;;;;;;;;2.10;99.90;;;;;;5025903;28;21191;-70
2022/01/05 02:10:04;;;;;;;;;;;2.10;99.90;;;;;;5025177;28;20083;-70
2022/01/05 02:12:32;;;;;;;;;;;2.00;99.90;;;;;;5025551;28;20077;-70
2022/01/05 02:14:59;;;;;;;;;;;2.00;99.90;;;;;;5026059;28;20059;-69
2022/01/05 02:17:41;;;;;;;;;;;2.00;99.90;;;;;;5025798;28;21122;-70
2022/01/05 02:20:12;;;;;;;;;;;2.00;99.90;;;;;;5025380;28;20264;-70
2022/01/05 02:22:41;;;;;;;;;;;2.00;99.90;;;;;;5025346;28;21143;-70
2022/01/05 02:25:08;;;;;;;;;;;1.90;99.90;;;;;;5026716;28;21345;-70
2022/01/05 02:27:35;;;;;;;;;;;2.00;99.90;;;;;;5026251;28;20074;-70
2022/01/05 02:30:02;;;;;;;;;;;2.00;99.90;;;;;;5025852;28;20300;-68
2022/01/05 02:32:29;;;;;;;;;;;2.00;99.90;;;;;;5024798;28;20060;-70
2022/01/05 02:34:56;;;;;;;;;;;2.00;99.90;;;;;;5025430;28;21171;-70
2022/01/05 02:37:23;;;;;;;;;;;1.90;99.90;;;;;;5026102;28;20064;-70
2022/01/05 02:39:52;;;;;;;;;;;1.90;99.90;;;;;;5025801;28;20058;-70
2022/01/05 02:42:25;;;;;;;;;;;1.90;99.90;;;;;;5028176;28;20059;-69
2022/01/05 02:44:52;;;;;;;;;;;1.90;99.90;;;;;;5029250;28;20068;-69
2022/01/05 02:47:19;;;;;;;;;;;1.90;99.90;;;;;;5029100;28;21155;-69
2022/01/05 02:49:46;;;;;;;;;;;1.90;99.90;;;;;;5028754;28;20210;-70
2022/01/05 02:52:13;;;;;;;;;;;1.90;99.90;;;;;;5029568;28;20059;-70
2022/01/05 02:54:40;;;;;;;;;;;1.90;99.90;;;;;;5029294;28;20060;-69
2022/01/05 02:57:09;;;;;;;;;;;1.90;99.90;;;;;;5029387;28;20074;-70
2022/01/05 02:59:36;;;;;;;;;;;1.90;99.90;;;;;;5029182;28;20059;-70
2022/01/05 03:02:03;;;;;;;;;;;1.90;99.90;;;;;;5028666;28;20059;-69
2022/01/05 03:04:30;;;;;;;;;;;1.90;99.90;;;;;;5029375;28;20067;-70
2022/01/05 03:06:57;;;;;;;;;;;1.90;99.90;;;;;;5029256;28;20059;-69
2022/01/05 03:09:24;;;;;;;;;;;1.90;99.90;;;;;;5029109;28;21149;-70
2022/01/05 03:11:51;;;;;;;;;;;1.90;99.90;;;;;;5028984;28;21064;-69
2022/01/05 03:14:20;;;;;;;;;;;1.80;99.90;;;;;;5028562;28;20076;-70
2022/01/05 03:16:47;;;;;;;;;;;1.80;99.90;;;;;;5028254;28;20067;-70
2022/01/05 03:19:14;;;;;;;;;;;1.80;99.90;;;;;;5028659;28;21045;-70
2022/01/05 03:21:41;;;;;;;;;;;1.80;99.90;;;;;;5029333;28;21135;-70
2022/01/05 03:24:08;;;;;;;;;;;1.70;99.90;;;;;;5028968;28;21109;-69
2022/01/05 03:26:35;;;;;;;;;;;1.70;99.90;;;;;;5028544;28;20223;-70
2022/01/05 03:29:02;;;;;;;;;;;1.70;99.90;;;;;;5028050;28;21127;-70
2022/01/05 03:31:30;;;;;;;;;;;1.70;99.90;;;;;;5029163;28;21118;-69
2022/01/05 03:33:58;;;;;;;;;;;1.70;99.90;;;;;;5027868;28;21136;-70
2022/01/05 03:36:25;;;;;;;;;;;1.70;99.90;;;;;;5028649;28;21162;-69
2022/01/05 03:38:52;;;;;;;;;;;1.70;99.90;;;;;;5027844;28;20169;-70
2022/01/05 03:41:19;;;;;;;;;;;1.70;99.90;;;;;;5028317;28;20060;-70
2022/01/05 03:43:47;;;;;;;;;;;1.60;99.90;;;;;;5027325;28;21150;-69
2022/01/05 03:46:14;;;;;;;;;;;1.60;99.90;;;;;;5028155;28;20201;-70
2022/01/05 03:48:43;;;;;;;;;;;1.60;99.90;;;;;;5028273;28;21057;-69
2022/01/05 03:51:10;;;;;;;;;;;1.60;99.90;;;;;;5028360;28;20066;-70
2022/01/05 03:53:37;;;;;;;;;;;1.60;99.90;;;;;;5026403;28;20055;-69
2022/01/05 03:56:04;;;;;;;;;;;1.60;99.90;;;;;;5027602;28;20090;-70
2022/01/05 03:58:32;;;;;;;;;;;1.60;99.90;;;;;;5027397;28;20067;-70
2022/01/05 04:01:01;;;;;;;;;;;1.60;99.90;;;;;;5028284;28;20067;-70
2022/01/05 04:03:29;;;;;;;;;;;1.60;99.90;;;;;;5027141;28;20059;-69
2022/01/05 04:05:57;;;;;;;;;;;1.50;99.90;;;;;;5037401;28;20068;-69
2022/01/05 04:08:24;;;;;;;;;;;1.50;99.90;;;;;;5041918;28;20059;-70
2022/01/05 04:10:51;;;;;;;;;;;1.50;99.90;;;;;;5041969;28;20059;-70
2022/01/05 04:13:19;;;;;;;;;;;1.50;99.90;;;;;;5049227;28;20058;-70
2022/01/05 04:15:46;;;;;;;;;;;1.50;99.90;;;;;;5049063;28;20196;-69
2022/01/05 04:18:13;;;;;;;;;;;1.50;99.90;;;;;;5049370;28;20059;-69
2022/01/05 04:20:40;;;;;;;;;;;1.50;99.90;;;;;;5049542;28;21466;-70
2022/01/05 04:23:09;;;;;;;;;;;1.50;99.90;;;;;;5049010;28;21086;-70
2022/01/05 04:25:37;;;;;;;;;;;1.50;99.90;;;;;;5048886;28;20148;-69
2022/01/05 04:28:05;;;;;;;;;;;1.50;99.90;;;;;;5049093;28;20058;-70
2022/01/05 04:30:32;;;;;;;;;;;1.50;99.90;;;;;;5049869;28;21084;-69
2022/01/05 04:32:59;;;;;;;;;;;1.50;99.90;;;;;;5048502;28;20066;-70
2022/01/05 04:35:26;;;;;;;;;;;1.50;99.90;;;;;;5049670;28;21097;-70
2022/01/05 04:37:53;;;;;;;;;;;1.40;99.90;;;;;;5049157;28;20066;-69
2022/01/05 04:40:22;;;;;;;;;;;1.50;99.90;;;;;;5049138;28;20081;-69
2022/01/05 04:42:49;;;;;;;;;;;1.50;99.90;;;;;;5049337;28;20059;-70
2022/01/05 04:45:16;;;;;;;;;;;1.40;99.90;;;;;;5048978;28;21140;-70
2022/01/05 04:47:43;;;;;;;;;;;1.40;99.90;;;;;;5065921;28;20063;-69
2022/01/05 04:50:14;;;;;;;;;;;1.40;99.90;;;;;;5048991;28;20059;-69
2022/01/05 04:52:41;;;;;;;;;;;1.40;99.90;;;;;;5048866;28;20281;-70
2022/01/05 04:55:09;;;;;;;;;;;1.40;99.90;;;;;;5049269;28;20066;-70
2022/01/05 04:57:37;;;;;;;;;;;1.40;99.90;;;;;;5048706;28;21152;-70
2022/01/05 05:00:05;;;;;;;;;;;1.40;99.90;;;;;;5048296;28;20059;-70
2022/01/05 05:02:32;;;;;;;;;;;1.40;99.90;;;;;;5049151;28;20058;-70
2022/01/05 05:04:59;;;;;;;;;;;1.40;99.90;;;;;;5048681;28;20066;-70
2022/01/05 05:07:26;;;;;;;;;;;1.40;99.90;;;;;;5048986;28;20067;-70
2022/01/05 05:09:53;;;;;;;;;;;1.30;99.90;;;;;;5065020;28;20064;-69
2022/01/05 05:12:20;;;;;;;;;;;1.40;99.90;;;;;;5048602;28;20059;-69
2022/01/05 05:14:50;;;;;;;;;;;1.40;99.90;;;;;;5064980;28;20066;-70
2022/01/05 05:17:17;;;;;;;;;;;1.30;99.90;;;;;;5049010;28;20066;-69
2022/01/05 05:19:44;;;;;;;;;;;1.40;99.90;;;;;;5048234;28;20074;-70
2022/01/05 05:22:11;;;;;;;;;;;1.40;99.90;;;;;;5048429;28;20073;-70
2022/01/05 05:24:38;;;;;;;;;;;1.40;99.90;;;;;;5048191;28;20067;-69
2022/01/05 05:27:06;;;;;;;;;;;1.40;99.90;;;;;;5048106;28;20059;-70
2022/01/05 05:29:33;;;;;;;;;;;1.40;99.90;;;;;;5048014;28;20258;-69
2022/01/05 05:32:01;;;;;;;;;;;1.30;99.90;;;;;;5047746;28;20051;-70
2022/01/05 05:34:28;;;;;;;;;;;1.20;99.90;;;;;;5048265;28;20057;-70
2022/01/05 05:36:56;;;;;;;;;;;1.20;99.90;;;;;;5048124;28;20058;-70
2022/01/05 05:39:22;;;;;;;;;;;1.20;99.90;;;;;;5047710;28;20065;-70
2022/01/05 05:41:50;;;;;;;;;;;1.20;99.90;;;;;;5047749;28;20068;-70
2022/01/05 05:44:17;;;;;;;;;;;1.20;99.90;;;;;;5048528;28;20066;-70
2022/01/05 05:46:44;;;;;;;;;;;1.20;99.90;;;;;;5048097;28;20075;-70
2022/01/05 05:49:12;;;;;;;;;;;1.10;99.90;;;;;;5047916;28;20068;-70
2022/01/05 05:51:40;;;;;;;;;;;1.20;99.90;;;;;;5048520;28;20059;-70
2022/01/05 05:54:07;;;;;;;;;;;1.10;99.90;;;;;;5047758;28;20088;-70
2022/01/05 05:56:34;;;;;;;;;;;1.20;99.90;;;;;;5048032;28;20056;-70
2022/01/05 05:59:01;;;;;;;;;;;1.20;99.90;;;;;;5064384;28;20051;-70
2022/01/05 06:01:28;;;;;;;;;;;1.20;99.90;;;;;;5041986;28;20084;-70
2022/01/05 06:03:55;;;;;;;;;;;1.20;99.90;;;;;;5045237;28;20067;-70
2022/01/05 06:06:24;;;;;;;;;;;1.20;99.90;;;;;;5029069;28;20068;-70
2022/01/05 06:08:51;;;;;;;;;;;1.30;99.90;;;;;;5051273;28;20066;-70
2022/01/05 06:11:18;;;;;;;;;;;1.20;99.90;;;;;;5030009;28;20066;-70
2022/01/05 06:13:45;;;;;;;;;;;1.20;99.90;;;;;;5025637;28;20075;-70
2022/01/05 06:16:12;;;;;;;;;;;1.20;99.90;;;;;;5027283;28;20060;-70
2022/01/05 06:18:39;;;;;;;;;;;1.20;99.90;;;;;;5029806;28;21071;-71
2022/01/05 06:21:06;;;;;;;;;;;1.20;99.90;;;;;;5012619;28;20069;-70
2022/01/05 06:23:35;;;;;;;;;;;1.30;99.90;;;;;;5026208;28;21136;-70
2022/01/05 06:26:01;;;;;;;;;;;1.30;99.90;;;;;;5036196;22;20060;-71
2022/01/05 06:28:29;;;;;;;;;;;1.20;99.90;;;;;;4990819;28;20060;-71
2022/01/05 06:30:56;;;;;;;;;;;1.20;99.90;;;;;;4991782;28;20086;-68
2022/01/05 06:33:23;;;;;;;;;;;1.20;99.90;;;;;;4991368;28;20083;-71
2022/01/05 06:35:50;;;;;;;;;;;1.30;99.90;;;;;;4991503;28;20094;-71
2022/01/05 06:38:17;;;;;;;;;;;1.30;99.90;;;;;;4990924;28;20133;-71
2022/01/05 06:40:45;;;;;;;;;;;1.30;99.90;;;;;;4991400;28;20149;-71
2022/01/05 06:43:13;;;;;;;;;;;1.20;99.90;;;;;;4991179;28;20141;-71
2022/01/05 06:45:41;;;;;;;;;;;1.20;99.90;;;;;;4991680;28;20052;-70
2022/01/05 06:48:08;;;;;;;;;;;1.20;99.90;;;;;;4990878;28;20068;-69
2022/01/05 06:50:35;;;;;;;;;;;1.30;99.90;;;;;;4983540;28;20893;-71
2022/01/05 06:53:03;;;;;;;;;;;1.30;99.90;;;;;;5019834;28;20075;-71
2022/01/05 06:55:30;;;;;;;;;;;1.40;99.90;;;;;;4989803;28;20060;-72
2022/01/05 06:57:58;;;;;;;;;;;1.40;99.90;;;;;;4989338;28;21007;-71
2022/01/05 07:00:26;;;;;;;;;;;1.50;99.90;;;;;;4988711;28;20067;-71
2022/01/05 07:02:54;;;;;;;;;;;1.50;99.90;;;;;;4973577;28;20152;-71
2022/01/05 07:05:21;;;;;;;;;;;1.60;99.90;;;;;;4988885;28;20073;-71
2022/01/05 07:07:48;;;;;;;;;;;1.70;99.90;;;;;;4989767;28;20141;-68
2022/01/05 07:10:16;;;;;;;;;;;1.80;99.90;;;;;;4989986;28;20091;-71
2022/01/05 07:12:43;;;;;;;;;;;1.90;99.90;;;;;;4989712;28;21119;-70
2022/01/05 07:15:12;;;;;;;;;;;1.90;99.90;;;;;;4989078;28;20067;-71
2022/01/05 07:17:39;;;;;;;;;;;1.90;99.90;;;;;;4988838;28;20171;-69
2022/01/05 07:20:07;;;;;;;;;;;1.90;99.90;;;;;;4990173;28;21065;-72
2022/01/05 07:22:34;;;;;;;;;;;1.90;99.90;;;;;;4986978;28;20068;-71
2022/01/05 07:25:01;;;;;;;;;;;1.90;99.90;;;;;;4981067;28;21155;-71
2022/01/05 07:27:28;;;;;;;;;;;1.90;99.90;;;;;;4988055;28;21095;-71
2022/01/05 07:29:55;;;;;;;;;;;1.90;99.90;;;;;;4989017;28;20052;-70
2022/01/05 07:32:24;;;;;;;;;;;1.90;99.90;;;;;;4988159;28;20060;-72
2022/01/05 07:34:51;;;;;;;;;;;2.00;99.90;;;;;;4989239;28;21005;-72
2022/01/05 07:37:18;;;;;;;;;;;1.90;99.90;;;;;;4989068;28;21128;-73
2022/01/05 07:39:46;;;;;;;;;;;;;;;;;;4988177;28;20097;-72
2022/01/05 07:42:13;;;;;;;;;;;1.90;99.90;;;;;;4988388;28;20068;-72
2022/01/05 07:44:40;;;;;;;;;;;1.90;99.90;;;;;;4988346;28;21043;-72
2022/01/05 07:47:08;;;;;;;;;;;2.00;99.90;;;;;;4988739;28;20162;-71
2022/01/05 07:49:37;;;;;;;;;;;2.00;99.90;;;;;;4988259;28;20068;-71
2022/01/05 07:52:05;;;;;;;;;;;2.00;99.90;;;;;;4989468;28;20051;-71
2022/01/05 07:54:33;;;;;;;;;;;2.00;99.90;;;;;;4989840;28;20065;-72
2022/01/05 07:57:00;;;;;;;;;;;2.00;99.90;;;;;;4988239;28;20060;-71
2022/01/05 07:59:27;;;;;;;;;;;1.90;99.90;;;;;;4986790;28;20093;-72
2022/01/05 08:01:55;;;;;;;;;;;1.90;99.90;;;;;;4981851;28;20193;-72
2022/01/05 08:04:22;;;;;;;;;;;1.90;99.90;;;;;;4990977;28;20060;-71
2022/01/05 08:06:51;;;;;;;;;;;1.80;99.90;;;;;;4989762;28;20153;-72
2022/01/05 08:09:18;;;;;;;;;;;1.80;99.90;;;;;;4989546;28;21114;-71
2022/01/05 08:11:45;;;;;;;;;;;1.80;99.90;;;;;;4980151;28;20068;-72
2022/01/05 08:14:12;;;;;;;;;;;1.80;99.90;;;;;;4978117;28;20192;-71
2022/01/05 08:16:40;;;;;;;;;;;1.90;99.90;;;;;;4975697;28;20150;-71
2022/01/05 08:19:07;;;;;;;;;;;2.10;99.90;;;;;;4973542;28;20150;-71
2022/01/05 08:21:34;;;;;;;;;;;2.10;99.90;;;;;;4971744;28;20170;-69
2022/01/05 08:24:03;;;;;;;;;;;2.20;99.90;;;;;;4982102;28;21136;-71
2022/01/05 08:26:30;;;;;;;;;;;2.30;99.90;;;;;;4986538;28;20060;-71
2022/01/05 08:28:57;;;;;;;;;;;2.30;99.90;;;;;;4984990;28;20077;-71
2022/01/05 08:31:24;;;;;;;;;;;2.40;99.90;;;;;;4982904;28;21050;-72
2022/01/05 08:33:51;;;;;;;;;;;2.40;99.90;;;;;;4986718;28;20093;-73
2022/01/05 08:36:18;;;;;;;;;;;2.40;99.90;;;;;;4977788;28;21161;-72
2022/01/05 08:38:45;;;;;;;;;;;2.40;99.90;;;;;;4976780;28;20104;-72
2022/01/05 08:41:14;;;;;;;;;;;2.40;99.90;;;;;;4987438;28;20084;-72
2022/01/05 08:43:41;;;;;;;;;;;2.50;99.90;;;;;;5006221;28;20111;-72
2022/01/05 08:46:08;;;;;;;;;;;2.50;99.90;;;;;;5006648;28;20059;-72
2022/01/05 08:48:36;;;;;;;;;;;2.50;99.90;;;;;;5006082;28;21075;-72
2022/01/05 08:51:03;;;;;;;;;;;2.50;99.90;;;;;;5006446;28;20051;-73
2022/01/05 08:53:30;;;;;;;;;;;2.50;99.90;;;;;;5004809;28;20060;-72
2022/01/05 08:55:58;;;;;;;;;;;2.50;99.90;;;;;;5006340;28;20066;-71
2022/01/05 08:58:26;;;;;;;;;;;2.60;99.90;;;;;;4984990;28;20108;-72
2022/01/05 09:00:54;;;;;;;;;;;;;;;;;;4974507;28;20060;-72
2022/01/05 09:03:21;;;;;;;;;;;2.60;99.90;;;;;;4965890;28;20528;-72
2022/01/05 09:05:48;;;;;;;;;;;2.60;99.90;;;;;;4966957;28;20088;-73
2022/01/05 09:08:15;;;;;;;;;;;2.60;99.90;;;;;;4965894;28;20081;-72
2022/01/05 09:10:43;;;;;;;;;;;2.70;99.90;;;;;;4971892;28;20096;-71
2022/01/05 09:13:11;;;;;;;;;;;2.70;99.90;;;;;;4985303;28;20162;-72
2022/01/05 09:15:40;;;;;;;;;;;2.70;99.90;;;;;;4986980;28;20058;-72
2022/01/05 09:18:07;;;;;;;;;;;2.80;99.90;;;;;;4985210;28;20273;-72
2022/01/05 09:20:34;;;;;;;;;;;2.80;99.90;;;;;;4979413;28;20068;-72
2022/01/05 09:23:02;;;;;;;;;;;2.90;99.90;;;;;;4985543;28;20132;-71
2022/01/05 09:25:29;;;;;;;;;;;2.90;99.90;;;;;;4980552;28;20076;-71
2022/01/05 09:27:56;;;;;;;;;;;2.90;99.90;;;;;;4983685;28;20060;-71
2022/01/05 09:30:25;;;;;;;;;;;2.90;99.90;;;;;;4970341;28;20133;-71
2022/01/05 09:32:54;;;;;;;;;;;3.00;99.90;;;;;;4965460;28;20203;-72
2022/01/05 09:35:24;;;;;;;;;;;3.10;99.90;;;;;;4966765;28;20426;-72
2022/01/05 09:37:55;;;;;;;;;;;3.10;99.90;;;;;;4966820;28;20066;-72
2022/01/05 09:43:08;;;;;;;;;;;3.20;99.90;;;;;;4965796;28;20053;-71
2022/01/05 09:45:36;;;;;;;;;;;3.30;99.90;;;;;;4965812;28;20060;-72
2022/01/05 09:48:27;;;;;;;;;;;3.30;99.90;;;;;;4966233;28;20062;-72
2022/01/05 09:50:59;;;;;;;;;;;3.30;99.90;;;;;;4957471;28;20060;-72
2022/01/05 09:53:26;;;;;;;;;;;3.40;99.90;;;;;;4969672;28;20067;-71
2022/01/05 09:55:54;;;;;;;;;;;3.40;99.90;;;;;;4970300;28;20092;-72
2022/01/05 09:58:21;;;;;;;;;;;3.40;99.90;;;;;;4969836;28;20141;-72
2022/01/05 10:00:48;;;;;;;;;;;3.30;99.90;;;;;;4984463;28;20295;-71
2022/01/05 10:03:15;;;;;;;;;;;3.30;99.90;;;;;;4973690;28;20060;-73
2022/01/05 10:05:42;;;;;;;;;;;3.30;99.90;;;;;;4970043;28;20080;-72
2022/01/05 10:08:11;;;;;;;;;;;3.30;99.90;;;;;;4968364;28;20835;-72
2022/01/05 10:10:39;;;;;;;;;;;3.40;99.90;;;;;;4978465;28;20061;-72
2022/01/05 10:13:06;;;;;;;;;;;3.40;99.90;;;;;;4989589;28;20082;-72
2022/01/05 10:15:33;;;;;;;;;;;3.40;99.90;;;;;;4982945;28;20150;-72
2022/01/05 10:18:10;;;;;;;;;;;3.40;99.90;;;;;;4975878;28;20077;-72
2022/01/05 10:20:37;;;;;;;;;;;3.50;99.90;;;;;;4990462;28;21067;-72
2022/01/05 10:23:04;;;;;;;;;;;3.50;99.90;;;;;;4989386;28;20063;-72
2022/01/05 10:25:33;;;;;;;;;;;3.50;99.90;;;;;;4988849;28;20052;-72
2022/01/05 10:28:01;;;;;;;;;;;3.50;99.90;;;;;;4989385;28;20082;-71
2022/01/05 10:30:35;;;;;;;;;;;3.50;99.90;;;;;;4989857;28;20153;-73
2022/01/05 10:33:02;;;;;;;;;;;3.50;99.90;;;;;;4987725;28;20141;-72
2022/01/05 10:35:29;;;;;;;;;;;3.50;99.90;;;;;;4988142;28;20052;-72
2022/01/05 10:37:57;;;;;;;;;;;3.60;99.90;;;;;;4977303;28;20158;-72
2022/01/05 10:40:24;;;;;;;;;;;3.60;99.90;;;;;;4977213;28;20100;-72
2022/01/05 10:42:55;;;;;;;;;;;3.70;99.90;;;;;;4968751;28;20069;-73
2022/01/05 10:45:23;;;;;;;;;;;3.80;99.90;;;;;;4969304;28;20052;-73
2022/01/05 10:48:04;;;;;;;;;;;3.90;99.90;;;;;;4968850;28;20067;-72
2022/01/05 10:50:31;;;;;;;;;;;3.90;99.90;;;;;;4970940;28;20055;-72
2022/01/05 10:52:58;;;;;;;;;;;4.00;99.90;;;;;;4969744;28;20091;-72
2022/01/05 10:55:26;;;;;;;;;;;4.10;99.90;;;;;;4969450;28;20060;-72
2022/01/05 10:57:59;;;;;;;;;;;4.10;99.90;;;;;;4968697;28;20075;-71
2022/01/05 11:00:33;;;;;;;;;;;4.30;99.90;;;;;;4974243;28;20076;-72
2022/01/05 11:03:01;;;;;;;;;;;4.50;99.90;;;;;;4988421;28;20108;-71
2022/01/05 11:05:28;;;;;;;;;;;4.40;99.90;;;;;;4991148;28;20068;-72
2022/01/05 11:08:07;;;;;;;;;;;4.30;99.90;;;;;;4991035;28;20067;-72
2022/01/05 11:10:34;;;;;;;;;;;4.20;99.90;;;;;;4991857;28;21098;-74
2022/01/05 11:13:03;;;;;;;;;;;4.10;99.90;;;;;;4991163;28;20264;-72
2022/01/05 11:15:31;;;;;;;;;;;4.10;99.90;;;;;;4991361;28;20068;-71
2022/01/05 11:18:17;;;;;;;;;;;4.00;99.90;;;;;;4991387;28;20051;-73
2022/01/05 11:20:46;;;;;;;;;;;4.10;99.90;;;;;;4990337;28;20158;-70
2022/01/05 11:23:13;;;;;;;;;;;4.10;99.90;;;;;;4981150;28;20066;-72
2022/01/05 11:25:43;;;;;;;;;;;4.30;99.90;;;;;;4968356;28;20163;-72
2022/01/05 11:28:13;;;;;;;;;;;4.50;99.90;;;;;;4970202;28;20065;-72
2022/01/05 11:30:41;;;;;;;;;;;6.70;99.90;;;;;;4969203;28;21064;-72
2022/01/05 11:33:08;;;;;;;;;;;;;;;;;;4967797;28;20068;-71
2022/01/05 11:35:35;;;;;;;;;;;5.10;99.90;;;;;;4967127;28;20207;-73
2022/01/05 11:38:03;;;;;;;;;;;4.90;99.90;;;;;;4986455;28;20069;-72
2022/01/05 11:40:31;;;;;;;;;;;5.00;99.90;;;;;;4988081;28;21187;-71
2022/01/05 11:42:59;;;;;;;;;;;5.50;99.90;;;;;;4987499;28;20144;-72
2022/01/05 11:45:35;;;;;;;;;;;5.60;99.90;;;;;;4987369;28;20092;-72
2022/01/05 11:48:13;;;;;;;;;;;5.50;99.90;;;;;;4986793;28;20060;-72
2022/01/05 11:50:45;;;;;;;;;;;5.40;99.90;;;;;;4988333;28;20068;-71
2022/01/05 11:53:13;;;;;;;;;;;5.40;99.90;;;;;;4987113;28;20150;-72
2022/01/05 11:55:59;;;;;;;;;;;6.50;99.90;;;;;;4987464;28;21231;-71
2022/01/05 11:58:27;;;;;;;;;;;7.10;99.90;;;;;;4987306;28;20190;-70
2022/01/05 12:01:08;;;;;;;;;;;6.10;99.90;;;;;;4988188;28;20107;-72
2022/01/05 12:04:01;;;;;;;;;;;5.70;99.90;;;;;;4984950;28;20066;-72
2022/01/05 12:06:31;;;;;;;;;;;7.10;99.90;;;;;;4987204;28;20059;-72
2022/01/05 12:08:59;;;;;;;;;;;7.20;99.90;;;;;;4986407;28;20136;-72
2022/01/05 12:11:29;;;;;;;;;;;6.60;99.90;;;;;;4977497;28;20058;-72
2022/01/05 12:13:57;;;;;;;;;;;5.90;99.90;;;;;;4966196;28;20141;-72
2022/01/05 12:16:24;;;;;;;;;;;6.30;99.90;;;;;;4967539;28;21126;-73
2022/01/05 12:19:07;;;;;;;;;;;7.50;99.90;;;;;;4978456;28;20061;-71
2022/01/05 12:21:44;;;;;;;;;;;6.60;99.90;;;;;;4977261;28;20201;-72
2022/01/05 12:24:11;;;;;;;;;;;7.50;99.90;;;;;;4988358;28;20142;-72
2022/01/05 12:26:39;;;;;;;;;;;9.90;99.90;;;;;;4987371;28;20051;-72
2022/01/05 12:29:07;;;;;;;;;;;9.00;99.90;;;;;;4987401;28;20060;-72
2022/01/05 12:31:53;;;;;;;;;;;7.40;99.90;;;;;;4987733;28;20097;-72
2022/01/05 12:34:35;;;;;;;;;;;6.40;99.90;;;;;;4981622;28;20068;-72
2022/01/05 12:37:04;;;;;;;;;;;5.80;99.90;;;;;;4964672;28;20107;-72
2022/01/05 12:39:46;;;;;;;;;;;5.60;99.90;;;;;;4980997;28;20077;-72
2022/01/05 12:42:22;;;;;;;;;;;5.50;99.90;;;;;;4977193;28;20075;-72
2022/01/05 12:44:49;;;;;;;;;;;5.30;99.90;;;;;;4988510;28;20153;-75
2022/01/05 12:47:17;;;;;;;;;;;5.20;99.90;;;;;;4987344;28;20082;-71
2022/01/05 12:49:44;;;;;;;;;;;5.20;99.90;;;;;;4987078;28;20068;-72
2022/01/05 12:52:14;;;;;;;;;;;5.10;99.90;;;;;;4984713;28;20060;-73
2022/01/05 12:54:42;;;;;;;;;;;5.00;99.90;;;;;;4978610;28;20093;-71
2022/01/05 12:57:11;;;;;;;;;;;5.10;99.90;;;;;;4982579;28;20068;-72
2022/01/05 12:59:41;;;;;;;;;;;5.20;99.90;;;;;;4973591;28;20162;-72
2022/01/05 13:02:09;;;;;;;;;;;5.20;99.90;;;;;;4966277;28;20061;-73
2022/01/05 13:04:37;;;;;;;;;;;5.10;99.90;;;;;;4967949;28;20269;-73
2022/01/05 13:07:05;;;;;;;;;;;5.00;99.90;;;;;;4967376;28;21132;-73
2022/01/05 13:09:36;;;;;;;;;;;5.00;99.90;;;;;;4967458;28;20076;-73
2022/01/05 13:12:04;;;;;;;;;;;5.00;99.90;;;;;;4982867;28;20059;-70
2022/01/05 13:14:32;;;;;;;;;;;5.00;99.90;;;;;;4987148;28;20096;-71
2022/01/05 13:17:00;;;;;;;;;;;5.10;99.90;;;;;;4982006;28;20068;-73
2022/01/05 13:19:45;;;;;;;;;;;5.20;99.90;;;;;;4983056;28;20072;-73
2022/01/05 13:22:14;;;;;;;;;;;5.40;99.90;;;;;;4985566;28;20068;-73
2022/01/05 13:24:56;;;;;;;;;;;5.20;99.90;;;;;;4983880;28;20082;-72
2022/01/05 13:27:25;;;;;;;;;;;5.10;99.90;;;;;;4980046;28;20069;-72
2022/01/05 13:29:54;;;;;;;;;;;5.10;99.90;;;;;;4967341;28;20150;-73
2022/01/05 13:32:22;;;;;;;;;;;5.10;99.90;;;;;;4967559;28;20058;-73
2022/01/05 13:34:50;;;;;;;;;;;5.10;99.90;;;;;;4970913;28;20099;-75
2022/01/05 13:37:27;;;;;;;;;;;5.10;99.90;;;;;;4968176;28;21201;-73
2022/01/05 13:39:59;;;;;;;;;;;5.00;99.90;;;;;;4968556;28;20150;-73
2022/01/05 13:42:32;;;;;;;;;;;5.00;99.90;;;;;;4967056;28;20074;-73
2022/01/05 13:44:59;;;;;;;;;;;4.90;99.90;;;;;;4986837;28;20178;-73
2022/01/05 13:47:26;;;;;;;;;;;4.90;99.90;;;;;;4979402;28;20077;-72
2022/01/05 13:50:11;;;;;;;;;;;4.90;99.90;;;;;;4977617;28;20068;-73
2022/01/05 13:52:39;;;;;;;;;;;4.90;99.90;;;;;;4985782;28;20088;-73
2022/01/05 13:55:07;;;;;;;;;;;4.90;99.90;;;;;;4971236;28;21112;-72
2022/01/05 13:57:36;;;;;;;;;;;4.90;99.90;;;;;;4978526;28;20069;-73
2022/01/05 14:00:05;;;;;;;;;;;5.00;99.90;;;;;;4979275;28;20091;-73
2022/01/05 14:02:33;;;;;;;;;;;5.00;99.90;;;;;;4986084;28;20185;-72
2022/01/05 14:05:01;;;;;;;;;;;5.00;99.90;;;;;;4986421;28;20075;-73
2022/01/05 14:07:29;;;;;;;;;;;5.00;99.90;;;;;;4978123;28;21191;-71
2022/01/05 14:10:08;;;;;;;;;;;5.10;99.90;;;;;;4968243;28;20086;-71
2022/01/05 14:12:37;;;;;;;;;;;5.10;99.90;;;;;;4980178;28;20083;-72
2022/01/05 14:15:06;;;;;;;;;;;5.10;99.90;;;;;;4979822;28;20084;-72
2022/01/05 14:17:33;;;;;;;;;;;5.10;99.90;;;;;;4966710;28;20075;-72
2022/01/05 14:20:17;;;;;;;;;;;5.20;99.90;;;;;;4964652;28;21150;-72
2022/01/05 14:22:45;;;;;;;;;;;5.20;99.90;;;;;;4965628;28;20094;-72
2022/01/05 14:25:12;;;;;;;;;;;5.20;99.90;;;;;;4979073;28;20085;-73
2022/01/05 14:27:42;;;;;;;;;;;5.20;99.90;;;;;;4985927;28;20068;-73
2022/01/05 14:30:11;;;;;;;;;;;5.10;99.90;;;;;;4985463;28;20060;-72
2022/01/05 14:32:40;;;;;;;;;;;5.10;99.90;;;;;;4986026;28;21251;-73
2022/01/05 14:35:14;;;;;;;;;;;5.00;99.90;;;;;;4986985;28;20215;-72
2022/01/05 14:37:55;;;;;;;;;;;5.00;99.90;;;;;;4988915;28;20067;-71
2022/01/05 14:40:22;;;;;;;;;;;4.90;99.90;;;;;;4990387;28;20068;-72
2022/01/05 14:42:55;;;;;;;;;;;4.90;99.90;;;;;;4989164;28;21201;-72